Leonardo Goncalves

Olheiro - Leiria
15 Out 2028
Domingo
Processo

Personalidade

Adaptabilidade (1) Ambição (12) Controvérsia (12) Lealdade (18) Pressão (11) Profissionalismo (17) Espírito Esportivo (2) Temperamento (19)

Perfil

Estilo de Treinamento Democrático
Licença Continental C
Determinação 9
Gestão de Pessoas 8
Motivação 8
Disciplina 12
Satisfação no Trabalho
100%
Fadiga
0%
Função Olheiro
Salário 31.2K p/s
Contrato 14.03.2029

Desempenho

Comportamento Bom
Eficácia do Treinamento
40%
Desenvolvimento do Jogador
45%
Prevenção de Lesões
40%
Implementação Tática
60%

Eventos Recentes

Participou de uma reunião de recrutamento agora
Participou de uma reunião de recrutamento agora
Recomendou um alvo de transferência agora
Participou de uma reunião de recrutamento 7d atrás
Participou de uma reunião de recrutamento 7d atrás
Recomendou um alvo de transferência 7d atrás
Recomendou um alvo de transferência 7d atrás
Observou uma partida 7d atrás

Monitorando agora

138
Jogador Clube Status Habilidade Confiança Observado Última observação Último voto
Ronaldo Lumungo Pacos de Ferreira Negociando 114 / 103 83% 1 21.08.2028 -
Jalen Blesa Oliveirense Relatório pronto 120 / 128 79% 1 19.06.2028 -
Tomé Sousa Farense Ativo 83 / 98 40% 1 02.06.2028 -
Thiago Nahuel Independiente Perdido 98 / 112 40% 1 02.06.2028 -
Diego Mascardi Juventus Ativo 136 / 144 40% 1 31.05.2028 -
Jan Bürger Northampton Town Ativo 124 / 129 40% 3 16.05.2028 -
Miguel Figueiredo Benfica Ativo 124 / 133 40% 2 16.05.2028 -
Inti Borghetto Patronato Ativo 93 / 110 40% 1 16.05.2028 -
Giovanni Leoni Lincoln City Ativo 136 / 143 40% 2 15.05.2028 -
Riquelme Thompson-Jones Accrington Stanley Ativo 105 / 123 40% 1 13.05.2028 -
Máximo Munarriz San Telmo Ativo 95 / 116 40% 1 12.05.2028 -
Andrija Bulatović Chamois Niortais Ativo 128 / 132 40% 1 12.05.2028 -
Noahkai Banks FC Augsburg Ativo 143 / 148 40% 2 11.05.2028 -
Idrissa Sabaly Valenciennes Ativo 100 / 113 40% 1 11.05.2028 -
Denis Grigorjev Arsenal Tula Ativo 88 / 82 40% 3 10.05.2028 -
Raul Tassoni Catanzaro Ativo 93 / 97 40% 1 10.05.2028 -
André Grêmio Ativo 129 / 132 40% 2 09.05.2028 -
Martim Cunha Porto Ativo 112 / 109 40% 4 08.05.2028 -
Nazareno Roselli Defensa y Justicia Ativo 121 / 119 40% 3 08.05.2028 -
Federico Matarán Giana Erminio Ativo 104 / 120 40% 2 08.05.2028 -
João Dalla Corte Internacional Ativo 105 / 93 40% 1 30.04.2028 -
Tobías Ramírez River Plate Ativo 123 / 119 40% 1 29.04.2028 -
Gael Moreno Morelia Ativo 66 / 73 40% 1 26.04.2028 -
João Capucho Benfica Ativo 102 / 115 40% 1 24.04.2028 -
Artem Luttsev Saturn Ativo 70 / 92 40% 1 20.04.2028 -
Dmytro Strilchuk Podillia Ativo 94 / 101 40% 1 18.04.2028 -
Lamine Bèye Portimonense Ativo 108 / 116 40% 1 14.04.2028 -
Claudio Martey Pianese Ativo 86 / 94 40% 1 14.04.2028 -
Matvey Zakharzhevskiy Legion Ativo 77 / 66 40% 2 10.04.2028 -
Matvey Bardachev Zenit Ativo 111 / 103 40% 1 08.04.2028 -
Nicolò Moranduzzo Renate Ativo 90 / 108 40% 1 08.04.2028 -
Alexandr Lubnin Zenit Penza Ativo 81 / 87 40% 1 07.04.2028 -
Yann Kitala Vizela Ativo 113 / 113 42% 1 / 1m 09.02.2028 -
Mamadou Tounkara Chaves Ativo 111 / 100 76% 1 01.01.2028 Aprovar
João Gonçalves Oliveirense Ativo 117 / 120 76% 1 21.06.2027 Aprovar
Rafael Monteiro Bragantino Ativo 75 / 67 40% 1 31.05.2027 -
David Ivanov Arezzo Ativo 73 / 72 40% 1 30.05.2027 -
Vitão Grêmio Ativo 80 / 99 40% 1 28.05.2027 -
Darlvin Yeboah Bechem United Ativo 88 / 79 40% 5 27.05.2027 -
Nazif Inoussa Benfica Ativo 74 / 92 40% 3 27.05.2027 -
Fletcher Holman Swindon Town Ativo 82 / 100 40% 4 26.05.2027 -
Mateus Mané Burnley Ativo 139 / 147 40% 4 26.05.2027 -
Riley Owen Stevenage Ativo 97 / 116 40% 1 26.05.2027 -
André Miranda Porto Ativo 107 / 105 40% 1 26.05.2027 -
Jakub Badžgoň MSK Zilina Ativo 108 / 102 40% 1 24.05.2027 -
Felipe Preis Andorra Ativo 86 / 80 40% 2 23.05.2027 -
Vitor Lamounier Cruzeiro Ativo 85 / 84 40% 1 23.05.2027 -
Ben Ahmed Kohili Paradou Ativo 101 / 123 40% 3 22.05.2027 -
Michael Noumon Heart of Lions Ativo 73 / 91 40% 5 22.05.2027 -
Stanley Amon Bayelsa United Ativo 90 / 92 40% 1 22.05.2027 -
Cian Ashford Cardiff City Ativo 114 / 125 40% 4 20.05.2027 -
Malik Mothersille Stockport County Ativo 117 / 111 40% 2 20.05.2027 -
Dennis Cirkin Queens Park Rangers Ativo 133 / 126 40% 1 20.05.2027 -
Teboho Zwane Ajax Cape Town Ativo 86 / 112 40% 1 20.05.2027 -
Máximo Seggio Crawley Town Ativo 84 / 95 40% 1 20.05.2027 -
Leo Castledine Middlesbrough Ativo 132 / 131 40% 3 19.05.2027 -
Isaiah Jones Luton Town Ativo 120 / 118 40% 3 17.05.2027 -
Max Bird Birmingham Ativo 131 / 132 40% 1 17.05.2027 -
Ole Pohlmann Rio Ave Ativo 131 / 130 40% 3 16.05.2027 -
Daniel Kyerewaa Reading Ativo 114 / 108 40% 2 16.05.2027 -
Alex Robertson Cardiff City Ativo 124 / 119 40% 1 16.05.2027 -
Jack Rudoni Coventry City Ativo 139 / 135 40% 2 14.05.2027 -
Ali Ahmed Norwich City Ativo 120 / 120 40% 1 14.05.2027 -
Olívio Tomé Benfica Ativo 114 / 108 40% 2 13.05.2027 -
Naledi Hlongwane Wa All Stars Ativo 92 / 100 40% 2 12.05.2027 -
Andre Brooks Sheffield United Ativo 134 / 126 40% 1 10.05.2027 -
Scott Twine Bristol City Ativo 122 / 117 40% 4 09.05.2027 -
Samuel Edozie Southampton Ativo 134 / 124 40% 2 09.05.2027 -
Dilan Neves Benfica Ativo 77 / 87 40% 1 07.05.2027 -
Bariş Kalaycı Fatih Karagumruk Ativo 92 / 107 40% 1 07.05.2027 -
Bobby Clark Derby County Ativo 129 / 126 40% 1 05.05.2027 -
Matvii Ponomarenko Dynamo Kyiv Ativo 113 / 133 40% 1 04.05.2027 -
Lorenzo De Leo Renate Ativo 95 / 106 40% 2 01.05.2027 -
Léo Nannetti Flamengo Ativo 101 / 94 40% 1 30.04.2027 -
Marcelo Cruzeiro Ativo 77 / 97 40% 1 30.04.2027 -
Italo America Mineiro Ativo 66 / 70 40% 1 30.04.2027 -
Monty Batlhabane Polokwane City Ativo 107 / 114 40% 1 26.04.2027 -
Iseppe Nacional Ativo 107 / 119 40% 1 26.04.2027 -
Juan Bezerra Zamalek Ativo 119 / 128 40% 1 26.04.2027 -
Lwanda Mbanjwa Platinum Stars Ativo 101 / 109 40% 3 23.04.2027 -
Víctor Guzmán Sporting CP Ativo 94 / 99 40% 3 23.04.2027 -
Ilyas Ansah Hull City Ativo 137 / 124 40% 2 21.04.2027 -
Gabriele Bertolini Vicenza Ativo 97 / 96 40% 1 19.04.2027 -
Ethan Williams Peterborough United Ativo 113 / 122 40% 1 19.04.2027 -
Vinícius Lopes Santa Clara Ativo 129 / 119 40% 3 18.04.2027 Observar
Welington Southampton Ativo 128 / 122 40% 1 18.04.2027 -
Romelle Donovan Brentford Ativo 117 / 124 40% 1 18.04.2027 -
Rafael Camacho Sporting CP Ativo 98 / 95 40% 1 18.04.2027 -
Lander Astiazarán Real Sociedad Ativo 102 / 105 40% 1 18.04.2027 -
Caleb Yirenkyi Coventry City Ativo 130 / 133 40% 1 17.04.2027 -
Serge Daura PWD Bamenda Ativo 100 / 102 40% 2 16.04.2027 -
Bongani Zungu Ajax Cape Town Ativo 118 / 143 40% 2 13.04.2027 -
Brooke Norton-Cuffy Hull City Ativo 139 / 128 40% 1 13.04.2027 -
Simo Maritimo Ativo 120 / 122 40% 1 12.04.2027 -
Luciano Juba Bahia Ativo 137 / 145 40% 1 10.04.2027 -
Filipe Sírio Internacional Ativo 72 / 94 40% 2 09.04.2027 -
Miloš Jovičić Zabbar St. Patrick Ativo 93 / 85 40% 2 09.04.2027 -
João Victor Grêmio Ativo 83 / 83 40% 1 09.04.2027 -
Gustavo Milani Corinthians Ativo 79 / 108 40% 1 09.04.2027 -
Santi García Gil Vicente Ativo 127 / 130 40% 1 07.04.2027 -
Martín Tejón Maritimo Ativo 123 / 110 40% 2 06.04.2027 -
Lorougnon Gohi Académico de Viseu Ativo 121 / 123 40% 1 06.04.2027 -
Asanele Bonani Chippa United Ativo 98 / 79 40% 1 06.04.2027 -
Manu Pozo Torreense Ativo 118 / 125 40% 2 02.04.2027 -
Mohamed-Ali Cho Hull City Ativo 133 / 136 40% 2 02.04.2027 -
Marcelo Allende Mamelodi Sundowns Ativo 137 / 143 40% 1 30.03.2027 -
Rocco Vata Watford Ativo 121 / 124 40% 1 29.03.2027 -
Gosiame Ngobeni New Edubiase United Ativo 77 / 76 40% 1 29.03.2027 -
Sergey Gaiduk Salyut Ativo 69 / 71 40% 1 28.03.2027 -
Ryan Oné Sheffield United Ativo 111 / 115 40% 1 28.03.2027 -
George Brown Sheffield Wednesday Ativo 104 / 108 40% 1 28.03.2027 -
Luke Baartman Ajax Cape Town Ativo 102 / 116 40% 2 24.03.2027 -
Will Lankshear Middlesbrough Ativo 125 / 124 40% 2 24.03.2027 -
Gustavo Silva Vitoria Guimaraes Ativo 125 / 116 40% 2 23.03.2027 -
Ilias Sebaoui Sint-Truiden Ativo 130 / 117 40% 1 23.03.2027 -
Oswin Appollis Orlando Pirates Ativo 121 / 132 40% 1 16.03.2027 -
Joseph George Aigle Royal de Moungo Ativo 85 / 81 40% 1 16.03.2027 -
Finn Azaz Southampton Ativo 132 / 118 40% 1 12.03.2027 -
Yegor Koshkin Pobeda Ativo 80 / 59 40% 1 11.03.2027 -
Gonçalo Ribeiro Porto Ativo 100 / 107 40% 1 11.03.2027 -
Gianluca Prestianni Benfica Ativo 138 / 127 40% 1 09.03.2027 -
Pedro Criciuma Ativo 82 / 91 40% 1 05.03.2027 -
Ousseynou Seck Randers Ativo 109 / 131 40% 1 05.03.2027 -
Tomáš Rigo Stoke City Ativo 130 / 139 40% 1 03.03.2027 -
João Pinto Ahrobiznes Ativo 83 / 71 40% 1 03.03.2027 -
Telmo Arcanjo Vitoria Guimaraes Ativo 121 / 123 40% 1 01.03.2027 -
David Sousa Casa Pia Ativo 116 / 119 40% 1 24.02.2027 -
Adam Randell Bristol City Ativo 134 / 137 40% 1 24.02.2027 -
Rodrigo Pinheiro Famalicao Ativo 121 / 128 40% 1 22.02.2027 -
Cheick Oumar Souaré Viktoria Plzen Ativo 139 / 125 40% 1 22.02.2027 -
Jordan Holsgrove Estoril Praia Ativo 134 / 121 40% 1 15.02.2027 -
João Mendes Vitoria Guimaraes Ativo 123 / 110 40% 1 15.02.2027 -
Max Johnston Derby County Ativo 121 / 117 40% 1 15.02.2027 -
Oliver Skipp Leicester City Ativo 126 / 137 40% 1 12.02.2027 -
Lebogang Manyama SuperSport United Ativo 104 / 94 40% 1 01.02.2027 -
Habib Diarra Sunderland Ativo 136 / 133 40% 1 01.02.2027 -
Jacques Ekomié Wrexham Ativo 129 / 119 40% 1 01.02.2027 -
Erick São Paulo Ativo 85 / 79 40% 1 31.12.2026 -